sensor_id;sensor_type;location;lat;lon;timestamp;P1;durP1;ratioP1;P2;durP2;ratioP2
5217;SDS011;26539;51.064;6.346;2023-05-07T00:01:12;18.10;;;16.03;;
5217;SDS011;26539;51.064;6.346;2023-05-07T00:03:38;26.53;;;16.27;;
5217;SDS011;26539;51.064;6.346;2023-05-07T00:06:04;21.23;;;16.90;;
5217;SDS011;26539;51.064;6.346;2023-05-07T00:08:29;20.00;;;15.40;;
5217;SDS011;26539;51.064;6.346;2023-05-07T00:10:55;18.50;;;15.97;;
5217;SDS011;26539;51.064;6.346;2023-05-07T00:13:20;25.97;;;15.90;;
5217;SDS011;26539;51.064;6.346;2023-05-07T00:15:46;22.60;;;15.50;;
5217;SDS011;26539;51.064;6.346;2023-05-07T00:18:11;21.07;;;16.20;;
5217;SDS011;26539;51.064;6.346;2023-05-07T00:20:37;28.63;;;16.60;;
5217;SDS011;26539;51.064;6.346;2023-05-07T00:23:02;23.57;;;15.60;;
5217;SDS011;26539;51.064;6.346;2023-05-07T00:25:28;26.70;;;16.30;;
5217;SDS011;26539;51.064;6.346;2023-05-07T00:27:53;23.67;;;15.20;;
5217;SDS011;26539;51.064;6.346;2023-05-07T00:30:19;26.20;;;15.83;;
5217;SDS011;26539;51.064;6.346;2023-05-07T00:32:45;21.43;;;16.00;;
5217;SDS011;26539;51.064;6.346;2023-05-07T00:35:11;27.43;;;16.07;;
5217;SDS011;26539;51.064;6.346;2023-05-07T00:37:37;25.03;;;16.43;;
5217;SDS011;26539;51.064;6.346;2023-05-07T00:40:02;20.30;;;15.77;;
5217;SDS011;26539;51.064;6.346;2023-05-07T00:42:32;26.50;;;16.37;;
5217;SDS011;26539;51.064;6.346;2023-05-07T00:44:57;27.20;;;14.43;;
5217;SDS011;26539;51.064;6.346;2023-05-07T00:47:23;26.20;;;16.83;;
5217;SDS011;26539;51.064;6.346;2023-05-07T00:49:50;24.73;;;16.27;;
5217;SDS011;26539;51.064;6.346;2023-05-07T00:52:16;30.03;;;15.47;;
5217;SDS011;26539;51.064;6.346;2023-05-07T00:54:44;23.10;;;16.33;;
5217;SDS011;26539;51.064;6.346;2023-05-07T00:57:10;24.33;;;15.60;;
5217;SDS011;26539;51.064;6.346;2023-05-07T00:59:36;18.30;;;13.90;;
5217;SDS011;26539;51.064;6.346;2023-05-07T01:02:02;18.40;;;14.37;;
5217;SDS011;26539;51.064;6.346;2023-05-07T01:04:28;20.43;;;13.80;;
5217;SDS011;26539;51.064;6.346;2023-05-07T01:06:55;19.83;;;14.13;;
5217;SDS011;26539;51.064;6.346;2023-05-07T01:09:23;26.40;;;14.30;;
5217;SDS011;26539;51.064;6.346;2023-05-07T01:11:49;18.50;;;13.30;;
5217;SDS011;26539;51.064;6.346;2023-05-07T01:14:16;17.53;;;14.43;;
5217;SDS011;26539;51.064;6.346;2023-05-07T01:16:42;20.83;;;14.77;;
5217;SDS011;26539;51.064;6.346;2023-05-07T01:19:08;20.00;;;14.80;;
5217;SDS011;26539;51.064;6.346;2023-05-07T01:21:36;21.07;;;12.77;;
5217;SDS011;26539;51.064;6.346;2023-05-07T01:24:03;17.93;;;13.40;;
5217;SDS011;26539;51.064;6.346;2023-05-07T01:26:29;18.43;;;14.97;;
5217;SDS011;26539;51.064;6.346;2023-05-07T01:28:55;17.03;;;14.17;;
5217;SDS011;26539;51.064;6.346;2023-05-07T01:31:20;16.37;;;14.30;;
5217;SDS011;26539;51.064;6.346;2023-05-07T01:33:47;17.17;;;13.63;;
5217;SDS011;26539;51.064;6.346;2023-05-07T01:36:14;16.10;;;13.93;;
5217;SDS011;26539;51.064;6.346;2023-05-07T01:38:42;17.33;;;14.60;;
5217;SDS011;26539;51.064;6.346;2023-05-07T01:41:08;23.03;;;14.70;;
5217;SDS011;26539;51.064;6.346;2023-05-07T01:43:34;16.20;;;13.93;;
5217;SDS011;26539;51.064;6.346;2023-05-07T01:46:00;22.63;;;15.07;;
5217;SDS011;26539;51.064;6.346;2023-05-07T01:48:27;19.10;;;15.00;;
5217;SDS011;26539;51.064;6.346;2023-05-07T01:50:53;17.50;;;15.10;;
5217;SDS011;26539;51.064;6.346;2023-05-07T01:53:20;21.63;;;16.00;;
5217;SDS011;26539;51.064;6.346;2023-05-07T01:55:45;17.23;;;15.20;;
5217;SDS011;26539;51.064;6.346;2023-05-07T01:58:11;24.20;;;14.53;;
5217;SDS011;26539;51.064;6.346;2023-05-07T02:00:36;17.47;;;15.40;;
5217;SDS011;26539;51.064;6.346;2023-05-07T02:03:02;18.03;;;16.13;;
5217;SDS011;26539;51.064;6.346;2023-05-07T02:05:28;24.00;;;18.03;;
5217;SDS011;26539;51.064;6.346;2023-05-07T02:07:53;20.53;;;16.53;;
5217;SDS011;26539;51.064;6.346;2023-05-07T02:10:19;23.17;;;16.90;;
5217;SDS011;26539;51.064;6.346;2023-05-07T02:12:44;23.00;;;16.17;;
5217;SDS011;26539;51.064;6.346;2023-05-07T02:15:10;24.70;;;17.17;;
5217;SDS011;26539;51.064;6.346;2023-05-07T02:17:38;29.33;;;19.40;;
5217;SDS011;26539;51.064;6.346;2023-05-07T02:20:22;26.53;;;17.00;;
5217;SDS011;26539;51.064;6.346;2023-05-07T02:22:48;23.83;;;17.07;;
5217;SDS011;26539;51.064;6.346;2023-05-07T02:25:13;25.60;;;17.43;;
5217;SDS011;26539;51.064;6.346;2023-05-07T02:27:39;26.80;;;15.83;;
5217;SDS011;26539;51.064;6.346;2023-05-07T02:30:04;23.60;;;16.50;;
5217;SDS011;26539;51.064;6.346;2023-05-07T02:32:30;30.27;;;19.33;;
5217;SDS011;26539;51.064;6.346;2023-05-07T02:34:56;24.40;;;17.20;;
5217;SDS011;26539;51.064;6.346;2023-05-07T02:37:21;23.33;;;17.40;;
5217;SDS011;26539;51.064;6.346;2023-05-07T02:39:47;27.93;;;17.60;;
5217;SDS011;26539;51.064;6.346;2023-05-07T02:42:12;25.73;;;16.93;;
5217;SDS011;26539;51.064;6.346;2023-05-07T02:44:38;24.40;;;17.23;;
5217;SDS011;26539;51.064;6.346;2023-05-07T02:47:03;19.60;;;15.47;;
5217;SDS011;26539;51.064;6.346;2023-05-07T02:49:29;24.43;;;16.07;;
5217;SDS011;26539;51.064;6.346;2023-05-07T02:51:54;26.07;;;15.57;;
5217;SDS011;26539;51.064;6.346;2023-05-07T02:54:20;21.37;;;15.67;;
5217;SDS011;26539;51.064;6.346;2023-05-07T02:56:46;25.07;;;16.67;;
5217;SDS011;26539;51.064;6.346;2023-05-07T02:59:11;21.57;;;15.23;;
5217;SDS011;26539;51.064;6.346;2023-05-07T03:01:37;23.97;;;16.00;;
5217;SDS011;26539;51.064;6.346;2023-05-07T03:04:02;22.97;;;15.20;;
5217;SDS011;26539;51.064;6.346;2023-05-07T03:06:28;21.67;;;16.10;;
5217;SDS011;26539;51.064;6.346;2023-05-07T03:08:54;25.70;;;16.60;;
5217;SDS011;26539;51.064;6.346;2023-05-07T03:11:19;21.40;;;15.93;;
5217;SDS011;26539;51.064;6.346;2023-05-07T03:13:45;24.13;;;16.57;;
5217;SDS011;26539;51.064;6.346;2023-05-07T03:16:10;19.73;;;15.10;;
5217;SDS011;26539;51.064;6.346;2023-05-07T03:18:36;26.67;;;15.70;;
5217;SDS011;26539;51.064;6.346;2023-05-07T03:21:07;20.67;;;14.70;;
5217;SDS011;26539;51.064;6.346;2023-05-07T03:23:33;25.43;;;16.10;;
5217;SDS011;26539;51.064;6.346;2023-05-07T03:25:58;23.40;;;15.57;;
5217;SDS011;26539;51.064;6.346;2023-05-07T03:28:24;24.77;;;16.90;;
5217;SDS011;26539;51.064;6.346;2023-05-07T03:30:49;28.50;;;17.10;;
5217;SDS011;26539;51.064;6.346;2023-05-07T03:33:15;23.93;;;16.90;;
5217;SDS011;26539;51.064;6.346;2023-05-07T03:35:41;29.93;;;16.13;;
5217;SDS011;26539;51.064;6.346;2023-05-07T03:38:06;23.63;;;17.63;;
5217;SDS011;26539;51.064;6.346;2023-05-07T03:40:32;22.50;;;15.50;;
5217;SDS011;26539;51.064;6.346;2023-05-07T03:42:59;20.80;;;14.27;;
5217;SDS011;26539;51.064;6.346;2023-05-07T03:45:25;25.80;;;16.07;;
5217;SDS011;26539;51.064;6.346;2023-05-07T03:47:50;21.90;;;15.77;;
5217;SDS011;26539;51.064;6.346;2023-05-07T03:50:16;22.60;;;14.90;;
5217;SDS011;26539;51.064;6.346;2023-05-07T03:52:42;25.00;;;16.70;;
5217;SDS011;26539;51.064;6.346;2023-05-07T03:55:07;20.53;;;15.87;;
5217;SDS011;26539;51.064;6.346;2023-05-07T03:57:33;27.23;;;17.13;;
5217;SDS011;26539;51.064;6.346;2023-05-07T03:59:59;23.87;;;15.07;;
5217;SDS011;26539;51.064;6.346;2023-05-07T04:02:24;27.17;;;16.80;;
5217;SDS011;26539;51.064;6.346;2023-05-07T04:04:50;26.13;;;18.70;;
5217;SDS011;26539;51.064;6.346;2023-05-07T04:07:15;29.20;;;17.30;;
5217;SDS011;26539;51.064;6.346;2023-05-07T04:09:41;25.30;;;18.40;;
5217;SDS011;26539;51.064;6.346;2023-05-07T04:12:07;26.27;;;18.20;;
5217;SDS011;26539;51.064;6.346;2023-05-07T04:14:32;26.90;;;17.60;;
5217;SDS011;26539;51.064;6.346;2023-05-07T04:16:58;24.93;;;17.27;;
5217;SDS011;26539;51.064;6.346;2023-05-07T04:19:24;23.53;;;17.70;;
5217;SDS011;26539;51.064;6.346;2023-05-07T04:21:50;27.97;;;16.83;;
5217;SDS011;26539;51.064;6.346;2023-05-07T04:24:15;27.63;;;18.53;;
5217;SDS011;26539;51.064;6.346;2023-05-07T04:26:41;28.60;;;18.47;;
5217;SDS011;26539;51.064;6.346;2023-05-07T04:29:06;23.47;;;16.80;;
5217;SDS011;26539;51.064;6.346;2023-05-07T04:31:32;27.47;;;18.03;;
5217;SDS011;26539;51.064;6.346;2023-05-07T04:33:58;24.20;;;17.80;;
5217;SDS011;26539;51.064;6.346;2023-05-07T04:36:23;25.80;;;17.10;;
5217;SDS011;26539;51.064;6.346;2023-05-07T04:38:52;25.70;;;17.73;;
5217;SDS011;26539;51.064;6.346;2023-05-07T04:41:18;27.37;;;17.83;;
5217;SDS011;26539;51.064;6.346;2023-05-07T04:43:44;27.57;;;17.73;;
5217;SDS011;26539;51.064;6.346;2023-05-07T04:46:09;23.70;;;17.07;;
5217;SDS011;26539;51.064;6.346;2023-05-07T04:48:35;24.40;;;17.57;;
5217;SDS011;26539;51.064;6.346;2023-05-07T04:51:00;24.27;;;16.00;;
5217;SDS011;26539;51.064;6.346;2023-05-07T04:53:26;25.47;;;16.60;;
5217;SDS011;26539;51.064;6.346;2023-05-07T04:55:55;21.60;;;15.63;;
5217;SDS011;26539;51.064;6.346;2023-05-07T04:58:22;22.83;;;16.67;;
5217;SDS011;26539;51.064;6.346;2023-05-07T05:00:47;22.13;;;15.50;;
5217;SDS011;26539;51.064;6.346;2023-05-07T05:03:13;22.20;;;16.37;;
5217;SDS011;26539;51.064;6.346;2023-05-07T05:05:39;22.37;;;14.93;;
5217;SDS011;26539;51.064;6.346;2023-05-07T05:08:04;21.53;;;15.40;;
5217;SDS011;26539;51.064;6.346;2023-05-07T05:10:30;21.77;;;14.70;;
5217;SDS011;26539;51.064;6.346;2023-05-07T05:12:55;18.30;;;14.37;;
5217;SDS011;26539;51.064;6.346;2023-05-07T05:15:21;22.40;;;14.70;;
5217;SDS011;26539;51.064;6.346;2023-05-07T05:17:46;21.63;;;14.43;;
5217;SDS011;26539;51.064;6.346;2023-05-07T05:20:12;18.70;;;13.27;;
5217;SDS011;26539;51.064;6.346;2023-05-07T05:22:38;19.37;;;13.83;;
5217;SDS011;26539;51.064;6.346;2023-05-07T05:25:03;17.70;;;12.90;;
5217;SDS011;26539;51.064;6.346;2023-05-07T05:27:29;17.17;;;12.37;;
5217;SDS011;26539;51.064;6.346;2023-05-07T05:29:55;21.17;;;12.40;;
5217;SDS011;26539;51.064;6.346;2023-05-07T05:32:20;16.20;;;12.10;;
5217;SDS011;26539;51.064;6.346;2023-05-07T05:34:46;15.13;;;11.43;;
5217;SDS011;26539;51.064;6.346;2023-05-07T05:37:12;15.03;;;10.83;;
5217;SDS011;26539;51.064;6.346;2023-05-07T05:39:37;16.97;;;12.40;;
5217;SDS011;26539;51.064;6.346;2023-05-07T05:42:03;18.63;;;11.47;;
5217;SDS011;26539;51.064;6.346;2023-05-07T05:44:29;16.00;;;12.70;;
5217;SDS011;26539;51.064;6.346;2023-05-07T05:46:54;16.53;;;12.20;;
5217;SDS011;26539;51.064;6.346;2023-05-07T05:49:22;19.00;;;11.80;;
5217;SDS011;26539;51.064;6.346;2023-05-07T05:51:48;15.63;;;11.67;;
5217;SDS011;26539;51.064;6.346;2023-05-07T05:54:13;16.10;;;10.73;;
5217;SDS011;26539;51.064;6.346;2023-05-07T05:56:40;13.43;;;10.77;;
5217;SDS011;26539;51.064;6.346;2023-05-07T05:59:05;12.70;;;10.03;;
5217;SDS011;26539;51.064;6.346;2023-05-07T06:01:31;13.03;;;9.47;;
5217;SDS011;26539;51.064;6.346;2023-05-07T06:03:57;11.40;;;8.93;;
5217;SDS011;26539;51.064;6.346;2023-05-07T06:06:22;15.70;;;9.67;;
5217;SDS011;26539;51.064;6.346;2023-05-07T06:08:48;12.77;;;8.70;;
5217;SDS011;26539;51.064;6.346;2023-05-07T06:11:13;9.00;;;7.60;;
5217;SDS011;26539;51.064;6.346;2023-05-07T06:13:39;9.20;;;7.67;;
5217;SDS011;26539;51.064;6.346;2023-05-07T06:16:04;9.27;;;7.50;;
5217;SDS011;26539;51.064;6.346;2023-05-07T06:18:30;12.17;;;8.33;;
5217;SDS011;26539;51.064;6.346;2023-05-07T06:20:56;9.73;;;7.93;;
5217;SDS011;26539;51.064;6.346;2023-05-07T06:23:21;8.60;;;7.70;;
5217;SDS011;26539;51.064;6.346;2023-05-07T06:25:50;9.20;;;7.10;;
5217;SDS011;26539;51.064;6.346;2023-05-07T06:28:16;9.57;;;8.50;;
5217;SDS011;26539;51.064;6.346;2023-05-07T06:30:42;9.13;;;7.17;;
5217;SDS011;26539;51.064;6.346;2023-05-07T06:33:07;8.40;;;6.80;;
5217;SDS011;26539;51.064;6.346;2023-05-07T06:35:33;8.07;;;6.70;;
5217;SDS011;26539;51.064;6.346;2023-05-07T06:37:59;8.33;;;6.20;;
5217;SDS011;26539;51.064;6.346;2023-05-07T06:40:25;8.40;;;6.93;;
5217;SDS011;26539;51.064;6.346;2023-05-07T06:42:50;8.50;;;6.07;;
5217;SDS011;26539;51.064;6.346;2023-05-07T06:45:16;7.67;;;6.43;;
5217;SDS011;26539;51.064;6.346;2023-05-07T06:47:41;7.20;;;5.90;;
5217;SDS011;26539;51.064;6.346;2023-05-07T06:50:07;7.57;;;6.00;;
5217;SDS011;26539;51.064;6.346;2023-05-07T06:52:33;7.40;;;6.60;;
5217;SDS011;26539;51.064;6.346;2023-05-07T06:54:59;7.07;;;6.43;;
5217;SDS011;26539;51.064;6.346;2023-05-07T06:57:25;7.90;;;6.70;;
5217;SDS011;26539;51.064;6.346;2023-05-07T06:59:50;7.37;;;6.37;;
5217;SDS011;26539;51.064;6.346;2023-05-07T07:02:16;7.67;;;6.60;;
5217;SDS011;26539;51.064;6.346;2023-05-07T07:04:41;7.97;;;6.23;;
5217;SDS011;26539;51.064;6.346;2023-05-07T07:07:07;6.13;;;5.53;;
5217;SDS011;26539;51.064;6.346;2023-05-07T07:09:33;5.40;;;4.90;;
5217;SDS011;26539;51.064;6.346;2023-05-07T07:11:58;6.70;;;5.40;;
5217;SDS011;26539;51.064;6.346;2023-05-07T07:14:24;5.60;;;5.10;;
5217;SDS011;26539;51.064;6.346;2023-05-07T07:16:49;8.13;;;5.37;;
5217;SDS011;26539;51.064;6.346;2023-05-07T07:19:15;7.03;;;5.33;;
5217;SDS011;26539;51.064;6.346;2023-05-07T07:21:41;4.70;;;4.20;;
5217;SDS011;26539;51.064;6.346;2023-05-07T07:24:07;6.90;;;4.60;;
5217;SDS011;26539;51.064;6.346;2023-05-07T07:26:32;5.30;;;4.80;;
5217;SDS011;26539;51.064;6.346;2023-05-07T07:28:58;5.97;;;4.97;;
5217;SDS011;26539;51.064;6.346;2023-05-07T07:31:23;4.77;;;4.33;;
5217;SDS011;26539;51.064;6.346;2023-05-07T07:33:49;4.77;;;4.27;;
5217;SDS011;26539;51.064;6.346;2023-05-07T07:36:15;5.67;;;5.13;;
5217;SDS011;26539;51.064;6.346;2023-05-07T07:38:41;7.33;;;5.00;;
5217;SDS011;26539;51.064;6.346;2023-05-07T07:41:07;5.50;;;5.00;;
5217;SDS011;26539;51.064;6.346;2023-05-07T07:43:33;4.37;;;3.97;;
5217;SDS011;26539;51.064;6.346;2023-05-07T07:46:00;5.50;;;3.90;;
5217;SDS011;26539;51.064;6.346;2023-05-07T07:48:26;5.77;;;4.93;;
5217;SDS011;26539;51.064;6.346;2023-05-07T07:50:51;6.23;;;4.90;;
5217;SDS011;26539;51.064;6.346;2023-05-07T07:53:17;5.80;;;4.43;;
5217;SDS011;26539;51.064;6.346;2023-05-07T07:55:43;6.40;;;5.30;;
5217;SDS011;26539;51.064;6.346;2023-05-07T07:58:09;9.23;;;5.40;;
5217;SDS011;26539;51.064;6.346;2023-05-07T08:00:34;6.63;;;4.37;;
5217;SDS011;26539;51.064;6.346;2023-05-07T08:03:00;4.87;;;4.30;;
5217;SDS011;26539;51.064;6.346;2023-05-07T08:05:32;6.40;;;4.67;;
5217;SDS011;26539;51.064;6.346;2023-05-07T08:07:57;4.83;;;4.30;;
5217;SDS011;26539;51.064;6.346;2023-05-07T08:10:23;4.27;;;3.87;;
5217;SDS011;26539;51.064;6.346;2023-05-07T08:12:49;4.50;;;3.80;;
5217;SDS011;26539;51.064;6.346;2023-05-07T08:15:15;6.40;;;4.13;;
5217;SDS011;26539;51.064;6.346;2023-05-07T08:17:41;3.93;;;3.53;;
5217;SDS011;26539;51.064;6.346;2023-05-07T08:20:07;5.87;;;4.00;;
5217;SDS011;26539;51.064;6.346;2023-05-07T08:22:36;4.30;;;3.90;;
5217;SDS011;26539;51.064;6.346;2023-05-07T08:25:02;3.60;;;3.30;;
5217;SDS011;26539;51.064;6.346;2023-05-07T08:27:31;6.37;;;3.97;;
5217;SDS011;26539;51.064;6.346;2023-05-07T08:29:56;4.00;;;3.27;;
5217;SDS011;26539;51.064;6.346;2023-05-07T08:32:22;3.33;;;3.03;;
5217;SDS011;26539;51.064;6.346;2023-05-07T08:34:47;3.50;;;3.20;;
5217;SDS011;26539;51.064;6.346;2023-05-07T08:37:13;3.60;;;3.30;;
5217;SDS011;26539;51.064;6.346;2023-05-07T08:39:38;3.70;;;3.03;;
5217;SDS011;26539;51.064;6.346;2023-05-07T08:42:04;3.17;;;2.87;;
5217;SDS011;26539;51.064;6.346;2023-05-07T08:44:32;3.10;;;2.77;;
5217;SDS011;26539;51.064;6.346;2023-05-07T08:47:00;2.93;;;2.60;;
5217;SDS011;26539;51.064;6.346;2023-05-07T08:49:27;3.10;;;2.57;;
5217;SDS011;26539;51.064;6.346;2023-05-07T08:51:53;5.17;;;2.53;;
5217;SDS011;26539;51.064;6.346;2023-05-07T08:54:20;2.67;;;2.37;;
5217;SDS011;26539;51.064;6.346;2023-05-07T08:56:46;3.47;;;2.30;;
5217;SDS011;26539;51.064;6.346;2023-05-07T08:59:12;4.33;;;2.30;;
5217;SDS011;26539;51.064;6.346;2023-05-07T09:01:41;3.07;;;2.83;;
5217;SDS011;26539;51.064;6.346;2023-05-07T09:04:06;4.43;;;2.87;;
5217;SDS011;26539;51.064;6.346;2023-05-07T09:06:32;3.60;;;2.70;;
5217;SDS011;26539;51.064;6.346;2023-05-07T09:08:58;6.77;;;2.80;;
5217;SDS011;26539;51.064;6.346;2023-05-07T09:11:26;5.83;;;2.90;;
5217;SDS011;26539;51.064;6.346;2023-05-07T09:13:55;3.40;;;3.10;;
5217;SDS011;26539;51.064;6.346;2023-05-07T09:16:23;2.60;;;2.40;;
5217;SDS011;26539;51.064;6.346;2023-05-07T09:18:52;3.73;;;2.93;;
5217;SDS011;26539;51.064;6.346;2023-05-07T09:21:19;3.73;;;3.03;;
5217;SDS011;26539;51.064;6.346;2023-05-07T09:23:45;3.03;;;2.73;;
5217;SDS011;26539;51.064;6.346;2023-05-07T09:26:13;3.53;;;3.10;;
5217;SDS011;26539;51.064;6.346;2023-05-07T09:28:40;3.10;;;2.37;;
5217;SDS011;26539;51.064;6.346;2023-05-07T09:31:06;5.77;;;3.00;;
5217;SDS011;26539;51.064;6.346;2023-05-07T09:33:33;6.63;;;2.70;;
5217;SDS011;26539;51.064;6.346;2023-05-07T09:35:58;3.90;;;2.07;;
5217;SDS011;26539;51.064;6.346;2023-05-07T09:38:27;6.80;;;2.37;;
5217;SDS011;26539;51.064;6.346;2023-05-07T09:41:03;5.43;;;2.07;;
5217;SDS011;26539;51.064;6.346;2023-05-07T09:43:33;6.10;;;1.93;;
5217;SDS011;26539;51.064;6.346;2023-05-07T09:46:03;3.83;;;1.93;;
5217;SDS011;26539;51.064;6.346;2023-05-07T09:48:42;5.87;;;2.00;;
5217;SDS011;26539;51.064;6.346;2023-05-07T09:51:15;6.37;;;2.00;;
5217;SDS011;26539;51.064;6.346;2023-05-07T09:53:47;4.23;;;2.00;;
5217;SDS011;26539;51.064;6.346;2023-05-07T09:56:14;4.90;;;2.37;;
5217;SDS011;26539;51.064;6.346;2023-05-07T09:58:41;6.53;;;2.27;;
5217;SDS011;26539;51.064;6.346;2023-05-07T10:01:08;3.30;;;2.03;;
5217;SDS011;26539;51.064;6.346;2023-05-07T10:03:36;5.43;;;1.60;;
5217;SDS011;26539;51.064;6.346;2023-05-07T10:06:02;2.70;;;1.47;;
5217;SDS011;26539;51.064;6.346;2023-05-07T10:08:30;3.43;;;2.60;;
5217;SDS011;26539;51.064;6.346;2023-05-07T10:10:55;6.83;;;1.93;;
5217;SDS011;26539;51.064;6.346;2023-05-07T10:13:21;7.63;;;2.07;;
5217;SDS011;26539;51.064;6.346;2023-05-07T10:15:47;3.30;;;1.90;;
5217;SDS011;26539;51.064;6.346;2023-05-07T10:18:13;5.43;;;1.93;;
5217;SDS011;26539;51.064;6.346;2023-05-07T10:20:38;3.33;;;1.70;;
5217;SDS011;26539;51.064;6.346;2023-05-07T10:23:06;6.20;;;2.27;;
5217;SDS011;26539;51.064;6.346;2023-05-07T10:25:32;3.40;;;2.07;;
5217;SDS011;26539;51.064;6.346;2023-05-07T10:28:03;7.10;;;2.20;;
5217;SDS011;26539;51.064;6.346;2023-05-07T10:33:26;2.33;;;1.40;;
5217;SDS011;26539;51.064;6.346;2023-05-07T10:35:55;2.33;;;1.60;;
5217;SDS011;26539;51.064;6.346;2023-05-07T10:38:24;2.70;;;1.90;;
5217;SDS011;26539;51.064;6.346;2023-05-07T10:40:51;5.73;;;2.17;;
5217;SDS011;26539;51.064;6.346;2023-05-07T10:43:17;2.47;;;1.70;;
5217;SDS011;26539;51.064;6.346;2023-05-07T10:45:42;5.63;;;2.50;;
5217;SDS011;26539;51.064;6.346;2023-05-07T10:50:44;3.03;;;2.27;;
5217;SDS011;26539;51.064;6.346;2023-05-07T10:55:46;11.07;;;2.37;;
5217;SDS011;26539;51.064;6.346;2023-05-07T11:00:47;3.03;;;2.00;;
5217;SDS011;26539;51.064;6.346;2023-05-07T11:03:14;2.47;;;1.80;;
5217;SDS011;26539;51.064;6.346;2023-05-07T11:05:40;3.87;;;1.67;;
5217;SDS011;26539;51.064;6.346;2023-05-07T11:08:06;1.70;;;1.30;;
5217;SDS011;26539;51.064;6.346;2023-05-07T11:10:47;3.80;;;2.20;;
5217;SDS011;26539;51.064;6.346;2023-05-07T11:16:23;3.87;;;1.70;;
5217;SDS011;26539;51.064;6.346;2023-05-07T11:18:50;2.37;;;2.00;;
5217;SDS011;26539;51.064;6.346;2023-05-07T11:21:36;2.30;;;1.97;;
5217;SDS011;26539;51.064;6.346;2023-05-07T11:24:08;3.50;;;1.80;;
5217;SDS011;26539;51.064;6.346;2023-05-07T11:26:44;2.77;;;1.90;;
5217;SDS011;26539;51.064;6.346;2023-05-07T11:29:14;5.13;;;1.70;;
5217;SDS011;26539;51.064;6.346;2023-05-07T11:31:47;2.43;;;1.80;;
5217;SDS011;26539;51.064;6.346;2023-05-07T11:34:15;2.10;;;1.90;;
5217;SDS011;26539;51.064;6.346;2023-05-07T11:36:50;2.20;;;1.90;;
5217;SDS011;26539;51.064;6.346;2023-05-07T11:39:26;2.40;;;2.17;;
5217;SDS011;26539;51.064;6.346;2023-05-07T11:41:57;4.40;;;2.37;;
5217;SDS011;26539;51.064;6.346;2023-05-07T11:44:23;2.67;;;2.10;;
5217;SDS011;26539;51.064;6.346;2023-05-07T11:46:49;2.37;;;1.63;;
5217;SDS011;26539;51.064;6.346;2023-05-07T11:49:15;2.70;;;1.70;;
5217;SDS011;26539;51.064;6.346;2023-05-07T11:51:41;2.83;;;1.97;;
5217;SDS011;26539;51.064;6.346;2023-05-07T11:54:08;3.93;;;2.20;;
5217;SDS011;26539;51.064;6.346;2023-05-07T11:56:36;2.93;;;2.17;;
5217;SDS011;26539;51.064;6.346;2023-05-07T11:59:02;3.20;;;1.80;;
5217;SDS011;26539;51.064;6.346;2023-05-07T12:01:27;3.53;;;2.43;;
5217;SDS011;26539;51.064;6.346;2023-05-07T12:03:53;2.73;;;1.97;;
5217;SDS011;26539;51.064;6.346;2023-05-07T12:06:18;3.17;;;2.03;;
5217;SDS011;26539;51.064;6.346;2023-05-07T12:08:44;3.30;;;2.00;;
5217;SDS011;26539;51.064;6.346;2023-05-07T12:11:13;4.20;;;2.10;;
5217;SDS011;26539;51.064;6.346;2023-05-07T12:13:47;2.93;;;1.90;;
5217;SDS011;26539;51.064;6.346;2023-05-07T12:16:12;2.60;;;2.07;;
5217;SDS011;26539;51.064;6.346;2023-05-07T12:18:38;3.50;;;2.00;;
5217;SDS011;26539;51.064;6.346;2023-05-07T12:21:05;3.80;;;2.10;;
5217;SDS011;26539;51.064;6.346;2023-05-07T12:23:31;2.73;;;1.63;;
5217;SDS011;26539;51.064;6.346;2023-05-07T12:25:58;3.17;;;1.90;;
5217;SDS011;26539;51.064;6.346;2023-05-07T12:28:24;2.20;;;1.77;;
5217;SDS011;26539;51.064;6.346;2023-05-07T12:30:50;3.50;;;1.87;;
5217;SDS011;26539;51.064;6.346;2023-05-07T12:33:23;3.70;;;1.70;;
5217;SDS011;26539;51.064;6.346;2023-05-07T12:35:49;2.37;;;1.97;;
5217;SDS011;26539;51.064;6.346;2023-05-07T12:38:15;3.00;;;1.50;;
5217;SDS011;26539;51.064;6.346;2023-05-07T12:40:43;2.60;;;1.53;;
5217;SDS011;26539;51.064;6.346;2023-05-07T12:45:53;3.07;;;1.80;;
5217;SDS011;26539;51.064;6.346;2023-05-07T12:48:20;1.90;;;1.40;;
5217;SDS011;26539;51.064;6.346;2023-05-07T12:50:50;2.60;;;1.80;;
5217;SDS011;26539;51.064;6.346;2023-05-07T12:53:16;1.97;;;1.33;;
5217;SDS011;26539;51.064;6.346;2023-05-07T12:55:46;2.70;;;1.40;;
5217;SDS011;26539;51.064;6.346;2023-05-07T12:58:29;3.20;;;1.70;;
5217;SDS011;26539;51.064;6.346;2023-05-07T13:00:58;2.10;;;1.40;;
5217;SDS011;26539;51.064;6.346;2023-05-07T13:03:29;3.57;;;2.00;;
5217;SDS011;26539;51.064;6.346;2023-05-07T13:05:57;3.33;;;2.13;;
5217;SDS011;26539;51.064;6.346;2023-05-07T13:08:25;3.00;;;1.90;;
5217;SDS011;26539;51.064;6.346;2023-05-07T13:10:54;7.00;;;1.90;;
5217;SDS011;26539;51.064;6.346;2023-05-07T13:13:21;7.97;;;1.90;;
5217;SDS011;26539;51.064;6.346;2023-05-07T13:15:47;2.40;;;1.87;;
5217;SDS011;26539;51.064;6.346;2023-05-07T13:18:13;2.73;;;1.63;;
5217;SDS011;26539;51.064;6.346;2023-05-07T13:20:38;3.00;;;1.97;;
5217;SDS011;26539;51.064;6.346;2023-05-07T13:23:04;7.20;;;3.47;;
5217;SDS011;26539;51.064;6.346;2023-05-07T13:25:30;12.93;;;4.33;;
5217;SDS011;26539;51.064;6.346;2023-05-07T13:27:58;19.77;;;4.70;;
5217;SDS011;26539;51.064;6.346;2023-05-07T13:30:24;7.80;;;3.87;;
5217;SDS011;26539;51.064;6.346;2023-05-07T13:32:50;9.67;;;3.60;;
5217;SDS011;26539;51.064;6.346;2023-05-07T13:35:17;7.70;;;2.80;;
5217;SDS011;26539;51.064;6.346;2023-05-07T13:37:42;3.60;;;2.20;;
5217;SDS011;26539;51.064;6.346;2023-05-07T13:40:08;5.47;;;2.03;;
5217;SDS011;26539;51.064;6.346;2023-05-07T13:42:34;5.10;;;2.70;;
5217;SDS011;26539;51.064;6.346;2023-05-07T13:44:59;6.97;;;3.17;;
5217;SDS011;26539;51.064;6.346;2023-05-07T13:47:25;6.80;;;2.70;;
5217;SDS011;26539;51.064;6.346;2023-05-07T13:49:51;4.10;;;3.03;;
5217;SDS011;26539;51.064;6.346;2023-05-07T13:52:16;6.57;;;4.30;;
5217;SDS011;26539;51.064;6.346;2023-05-07T13:54:42;4.37;;;2.50;;
5217;SDS011;26539;51.064;6.346;2023-05-07T13:57:08;4.67;;;1.80;;
5217;SDS011;26539;51.064;6.346;2023-05-07T13:59:33;2.33;;;1.40;;
5217;SDS011;26539;51.064;6.346;2023-05-07T14:01:59;3.17;;;1.80;;
5217;SDS011;26539;51.064;6.346;2023-05-07T14:04:25;2.63;;;1.47;;
5217;SDS011;26539;51.064;6.346;2023-05-07T14:06:50;5.20;;;2.17;;
5217;SDS011;26539;51.064;6.346;2023-05-07T14:09:16;3.20;;;1.50;;
5217;SDS011;26539;51.064;6.346;2023-05-07T14:11:41;2.30;;;1.30;;
5217;SDS011;26539;51.064;6.346;2023-05-07T14:14:07;2.70;;;1.30;;
5217;SDS011;26539;51.064;6.346;2023-05-07T14:16:35;2.00;;;1.40;;
5217;SDS011;26539;51.064;6.346;2023-05-07T14:19:01;3.27;;;1.83;;
5217;SDS011;26539;51.064;6.346;2023-05-07T14:21:27;2.37;;;1.40;;
5217;SDS011;26539;51.064;6.346;2023-05-07T14:23:52;2.03;;;1.73;;
5217;SDS011;26539;51.064;6.346;2023-05-07T14:26:18;6.90;;;1.90;;
5217;SDS011;26539;51.064;6.346;2023-05-07T14:28:44;3.33;;;2.20;;
5217;SDS011;26539;51.064;6.346;2023-05-07T14:31:11;4.17;;;2.03;;
5217;SDS011;26539;51.064;6.346;2023-05-07T14:33:37;2.50;;;1.73;;
5217;SDS011;26539;51.064;6.346;2023-05-07T14:36:02;1.83;;;1.33;;
5217;SDS011;26539;51.064;6.346;2023-05-07T14:38:28;4.10;;;1.37;;
5217;SDS011;26539;51.064;6.346;2023-05-07T14:40:55;2.17;;;1.60;;
5217;SDS011;26539;51.064;6.346;2023-05-07T14:43:21;4.70;;;1.73;;
5217;SDS011;26539;51.064;6.346;2023-05-07T14:45:47;1.50;;;1.40;;
5217;SDS011;26539;51.064;6.346;2023-05-07T14:48:12;3.83;;;1.50;;
5217;SDS011;26539;51.064;6.346;2023-05-07T14:50:40;3.17;;;1.70;;
5217;SDS011;26539;51.064;6.346;2023-05-07T14:53:08;2.03;;;1.23;;
5217;SDS011;26539;51.064;6.346;2023-05-07T14:55:34;2.13;;;1.50;;
5217;SDS011;26539;51.064;6.346;2023-05-07T14:58:00;1.90;;;1.50;;
5217;SDS011;26539;51.064;6.346;2023-05-07T15:00:26;2.43;;;2.20;;
5217;SDS011;26539;51.064;6.346;2023-05-07T15:02:51;2.13;;;1.93;;